Time;durP1;ratioP1;P1;durP2;ratioP2;P2;SDS_P1;SDS_P2;PMS_P1;PMS_P2;Temp;Humidity;BMP_temperature;BMP_pressure;BME280_temperature;BME280_humidity;BME280_pressure;Samples;Min_cycle;Max_cycle;Signal;HPM_P1;HPM_P2
2022/01/31 00:02:06;;;;;;;;;;;14.40;55.80;;;;;;5122439;27;19928;-71
2022/01/31 00:04:33;;;;;;;;;;;14.40;55.80;;;;;;5123924;27;20006;-71
2022/01/31 00:07:02;;;;;;;;;;;14.40;55.80;;;;;;5123310;27;20439;-71
2022/01/31 00:09:28;;;;;;;;;;;14.30;55.80;;;;;;5114152;27;19923;-71
2022/01/31 00:11:59;;;;;;;;;;;14.30;55.80;;;;;;5121592;27;20018;-71
2022/01/31 00:14:33;;;;;;;;;;;14.30;55.80;;;;;;5123201;27;19931;-71
2022/01/31 00:17:00;;;;;;;;;;;14.30;55.90;;;;;;5121664;27;19924;-71
2022/01/31 00:19:27;;;;;;;;;;;14.30;55.80;;;;;;5108050;27;20014;-71
2022/01/31 00:21:54;;;;;;;;;;;14.30;55.90;;;;;;5123606;27;19924;-71
2022/01/31 00:24:22;;;;;;;;;;;14.30;55.90;;;;;;5120999;27;19987;-71
2022/01/31 00:26:48;;;;;;;;;;;14.30;55.90;;;;;;5118340;27;20006;-71
2022/01/31 00:29:15;;;;;;;;;;;14.30;55.90;;;;;;5121740;27;19924;-71
2022/01/31 00:31:41;;;;;;;;;;;14.30;55.80;;;;;;5124571;27;19923;-71
2022/01/31 00:34:08;;;;;;;;;;;14.30;55.80;;;;;;5122317;28;19930;-71
2022/01/31 00:36:34;;;;;;;;;;;14.30;55.80;;;;;;5116036;28;19931;-71
2022/01/31 00:39:01;;;;;;;;;;;14.30;56.40;;;;;;5120578;28;20355;-71
2022/01/31 00:41:29;;;;;;;;;;;14.30;55.80;;;;;;5098001;28;19947;-71
2022/01/31 00:44:01;;;;;;;;;;;14.30;55.70;;;;;;5124775;28;20023;-71
2022/01/31 00:46:34;;;;;;;;;;;14.30;55.80;;;;;;5114641;28;19932;-70
2022/01/31 00:49:00;;;;;;;;;;;14.40;55.90;;;;;;5127500;28;19928;-70
2022/01/31 00:51:27;;;;;;;;;;;14.40;55.80;;;;;;5114172;28;19975;-70
2022/01/31 00:53:54;;;;;;;;;;;14.40;55.80;;;;;;5119412;28;19924;-70
2022/01/31 00:56:20;;;;;;;;;;;14.40;55.70;;;;;;5118879;28;20386;-70
2022/01/31 00:58:48;;;;;;;;;;;14.40;55.80;;;;;;5119380;28;20046;-70
2022/01/31 01:01:15;;;;;;;;;;;14.40;55.80;;;;;;5113118;28;19974;-70
2022/01/31 01:03:41;;;;;;;;;;;14.40;55.70;;;;;;5118543;28;20295;-70
2022/01/31 01:06:08;;;;;;;;;;;14.50;55.70;;;;;;5127279;28;20015;-72
2022/01/31 01:08:35;;;;;;;;;;;14.50;55.70;;;;;;5119335;28;19924;-70
2022/01/31 01:11:01;;;;;;;;;;;14.50;55.70;;;;;;5119622;28;20348;-70
2022/01/31 01:13:28;;;;;;;;;;;14.50;55.70;;;;;;5123666;28;19924;-70
2022/01/31 01:15:56;;;;;;;;;;;14.50;55.70;;;;;;5101525;28;19924;-71
2022/01/31 01:18:22;;;;;;;;;;;14.50;55.60;;;;;;5125153;28;20476;-72
2022/01/31 01:20:49;;;;;;;;;;;14.50;55.60;;;;;;5118841;28;20015;-70
2022/01/31 01:23:16;;;;;;;;;;;14.50;56.20;;;;;;5127379;28;20017;-70
2022/01/31 01:25:42;;;;;;;;;;;14.60;55.70;;;;;;5116452;28;19923;-70
2022/01/31 01:28:09;;;;;;;;;;;14.60;55.60;;;;;;5121371;28;19934;-70
2022/01/31 01:30:36;;;;;;;;;;;14.60;55.60;;;;;;5118202;28;20108;-70
2022/01/31 01:33:09;;;;;;;;;;;14.60;55.50;;;;;;5119193;28;20376;-70
2022/01/31 01:35:38;;;;;;;;;;;14.60;55.50;;;;;;5122335;28;19928;-70
2022/01/31 01:38:07;;;;;;;;;;;14.60;55.50;;;;;;5113560;28;19928;-70
2022/01/31 01:40:34;;;;;;;;;;;14.60;55.50;;;;;;5121265;27;19924;-70
2022/01/31 01:43:00;;;;;;;;;;;14.60;55.50;;;;;;5123012;27;19984;-70
2022/01/31 01:45:27;;;;;;;;;;;14.70;55.50;;;;;;5102470;27;20327;-70
2022/01/31 01:47:53;;;;;;;;;;;14.70;55.50;;;;;;5115342;27;19928;-71
2022/01/31 01:50:21;;;;;;;;;;;14.70;55.50;;;;;;5119660;27;20011;-70
2022/01/31 01:52:50;;;;;;;;;;;14.70;55.40;;;;;;5124401;27;19982;-70
2022/01/31 01:55:16;;;;;;;;;;;14.70;55.50;;;;;;5123697;27;19927;-70
2022/01/31 01:57:43;;;;;;;;;;;14.70;55.40;;;;;;5125789;27;20010;-70
2022/01/31 02:00:15;;;;;;;;;;;14.70;55.40;;;;;;5117489;27;20006;-71
2022/01/31 02:02:42;;;;;;;;;;;14.70;55.40;;;;;;5120945;27;19924;-71
2022/01/31 02:05:09;;;;;;;;;;;14.70;55.40;;;;;;5124734;27;19945;-70
2022/01/31 02:07:37;;;;;;;;;;;14.70;55.30;;;;;;5122174;27;20010;-71
2022/01/31 02:10:06;;;;;;;;;;;14.70;55.30;;;;;;5126483;27;19966;-71
2022/01/31 02:12:37;;;;;;;;;;;14.80;55.30;;;;;;5122287;27;19927;-70
2022/01/31 02:15:04;;;;;;;;;;;14.70;55.30;;;;;;5122331;27;20328;-72
2022/01/31 02:17:31;;;;;;;;;;;14.80;55.40;;;;;;5123211;27;19968;-70
2022/01/31 02:19:57;;;;;;;;;;;14.80;55.30;;;;;;5122284;27;20015;-70
2022/01/31 02:22:25;;;;;;;;;;;14.80;55.30;;;;;;5125644;27;19934;-72
2022/01/31 02:24:52;;;;;;;;;;;14.80;55.30;;;;;;5121914;27;20010;-70
2022/01/31 02:27:23;;;;;;;;;;;14.80;55.30;;;;;;5127254;27;20014;-71
2022/01/31 02:29:50;;;;;;;;;;;14.80;55.30;;;;;;5121984;27;20022;-70
2022/01/31 02:32:20;;;;;;;;;;;14.80;55.30;;;;;;5128924;27;19923;-72
2022/01/31 02:34:46;;;;;;;;;;;14.80;55.30;;;;;;5121924;27;19934;-70
2022/01/31 02:37:13;;;;;;;;;;;14.80;55.20;;;;;;5113907;27;20398;-71
2022/01/31 02:39:41;;;;;;;;;;;14.80;55.20;;;;;;5123551;27;19924;-72
2022/01/31 02:42:08;;;;;;;;;;;14.80;55.20;;;;;;5122661;27;20339;-70
2022/01/31 02:44:34;;;;;;;;;;;14.80;55.20;;;;;;5125912;27;20006;-70
2022/01/31 02:47:05;;;;;;;;;;;14.90;55.30;;;;;;5122212;27;19999;-71
2022/01/31 02:49:35;;;;;;;;;;;14.80;55.20;;;;;;5125062;27;19923;-70
2022/01/31 02:52:05;;;;;;;;;;;14.60;55.20;;;;;;5120524;27;19936;-70
2022/01/31 02:54:32;;;;;;;;;;;14.80;55.20;;;;;;5125152;27;20380;-70
2022/01/31 02:57:00;;;;;;;;;;;14.80;55.20;;;;;;5122422;27;19924;-70
2022/01/31 02:59:26;;;;;;;;;;;14.90;55.30;;;;;;5112325;27;20018;-70
2022/01/31 03:01:53;;;;;;;;;;;14.90;55.30;;;;;;5124958;27;20019;-72
2022/01/31 03:04:20;;;;;;;;;;;14.90;55.30;;;;;;5115965;27;20020;-70
2022/01/31 03:06:49;;;;;;;;;;;14.90;55.20;;;;;;5111365;27;20356;-70
2022/01/31 03:09:15;;;;;;;;;;;14.90;55.20;;;;;;5121665;27;19967;-72
2022/01/31 03:11:42;;;;;;;;;;;14.90;55.20;;;;;;5124824;27;20002;-70
2022/01/31 03:14:10;;;;;;;;;;;14.90;55.20;;;;;;5122225;27;20002;-70
2022/01/31 03:16:40;;;;;;;;;;;14.90;55.20;;;;;;5123975;27;20369;-70
2022/01/31 03:19:07;;;;;;;;;;;14.90;55.20;;;;;;5123504;27;19924;-70
2022/01/31 03:21:33;;;;;;;;;;;14.90;55.20;;;;;;5125655;27;19930;-70
2022/01/31 03:24:00;;;;;;;;;;;14.90;55.20;;;;;;5120860;27;19995;-70
2022/01/31 03:26:27;;;;;;;;;;;14.90;55.20;;;;;;5106704;27;20014;-70
2022/01/31 03:28:53;;;;;;;;;;;14.90;55.20;;;;;;5124182;27;20002;-71
2022/01/31 03:31:21;;;;;;;;;;;14.90;55.20;;;;;;5119843;27;19923;-71
2022/01/31 03:33:48;;;;;;;;;;;14.90;55.20;;;;;;5114675;27;20018;-73
2022/01/31 03:36:15;;;;;;;;;;;14.90;55.20;;;;;;5122153;27;19967;-70
2022/01/31 03:38:41;;;;;;;;;;;14.90;55.20;;;;;;5125957;27;19930;-70
2022/01/31 03:41:08;;;;;;;;;;;14.90;55.20;;;;;;5118744;27;19967;-70
2022/01/31 03:43:34;;;;;;;;;;;14.90;55.20;;;;;;5124060;27;19923;-72
2022/01/31 03:46:01;;;;;;;;;;;14.90;55.20;;;;;;5122415;27;20272;-70
2022/01/31 03:48:29;;;;;;;;;;;14.90;55.20;;;;;;5117749;27;20032;-70
2022/01/31 03:50:56;;;;;;;;;;;14.90;55.20;;;;;;5125301;27;19990;-72
2022/01/31 03:53:22;;;;;;;;;;;14.90;55.10;;;;;;5125954;27;20014;-72
2022/01/31 03:55:49;;;;;;;;;;;14.90;55.10;;;;;;5129649;27;20345;-72
2022/01/31 03:58:18;;;;;;;;;;;14.90;55.20;;;;;;5128559;27;19978;-73
2022/01/31 04:00:44;;;;;;;;;;;14.90;55.20;;;;;;5131956;27;20389;-73
2022/01/31 04:03:11;;;;;;;;;;;14.90;55.10;;;;;;5129932;27;20014;-72
2022/01/31 04:05:39;;;;;;;;;;;14.90;55.10;;;;;;5126145;27;19991;-72
2022/01/31 04:08:05;;;;;;;;;;;14.90;55.10;;;;;;5128943;27;20014;-72
2022/01/31 04:10:32;;;;;;;;;;;14.90;55.10;;;;;;5125801;27;19963;-72
2022/01/31 04:12:59;;;;;;;;;;;14.90;55.10;;;;;;5132766;27;20030;-72
2022/01/31 04:15:25;;;;;;;;;;;14.90;55.10;;;;;;5127801;27;19978;-71
2022/01/31 04:17:52;;;;;;;;;;;14.90;55.10;;;;;;5126543;27;19975;-71
2022/01/31 04:20:19;;;;;;;;;;;14.90;55.10;;;;;;5121309;27;19923;-70
2022/01/31 04:22:52;;;;;;;;;;;14.90;55.10;;;;;;5119929;27;19930;-70
2022/01/31 04:25:29;;;;;;;;;;;14.90;55.00;;;;;;5124078;27;19927;-70
2022/01/31 04:28:02;;;;;;;;;;;14.90;55.10;;;;;;5109465;28;19924;-72
2022/01/31 04:30:29;;;;;;;;;;;14.90;55.10;;;;;;5120005;27;19975;-71
2022/01/31 04:32:55;;;;;;;;;;;14.90;55.00;;;;;;5119765;28;19969;-70
2022/01/31 04:35:22;;;;;;;;;;;14.90;55.00;;;;;;5127479;28;20380;-71
2022/01/31 04:37:50;;;;;;;;;;;14.90;55.00;;;;;;5118816;28;19924;-71
2022/01/31 04:40:16;;;;;;;;;;;14.90;55.00;;;;;;5121660;28;19959;-71
2022/01/31 04:42:44;;;;;;;;;;;14.90;55.00;;;;;;5121818;28;20346;-70
2022/01/31 04:45:11;;;;;;;;;;;14.90;55.00;;;;;;5115297;28;19924;-70
2022/01/31 04:47:37;;;;;;;;;;;14.90;55.00;;;;;;5123169;28;19980;-70
2022/01/31 04:50:04;;;;;;;;;;;14.90;55.00;;;;;;5118876;28;19963;-70
2022/01/31 04:52:31;;;;;;;;;;;14.90;55.00;;;;;;5123051;28;20022;-70
2022/01/31 04:54:59;;;;;;;;;;;14.90;55.00;;;;;;5121681;28;20451;-70
2022/01/31 04:57:26;;;;;;;;;;;14.90;55.00;;;;;;5122487;28;20010;-70
2022/01/31 04:59:52;;;;;;;;;;;14.90;55.00;;;;;;5123214;28;20301;-72
2022/01/31 05:02:19;;;;;;;;;;;14.90;55.00;;;;;;5122091;28;19924;-70
2022/01/31 05:04:45;;;;;;;;;;;14.90;55.00;;;;;;5123333;28;19923;-70
2022/01/31 05:07:12;;;;;;;;;;;15.00;55.10;;;;;;5118317;28;20003;-70
2022/01/31 05:09:39;;;;;;;;;;;14.90;55.00;;;;;;5122873;28;19997;-71
2022/01/31 05:12:08;;;;;;;;;;;14.90;55.00;;;;;;5120305;28;19958;-70
2022/01/31 05:14:34;;;;;;;;;;;15.00;55.00;;;;;;5124857;27;19960;-70
2022/01/31 05:17:01;;;;;;;;;;;14.90;55.00;;;;;;5125959;27;20336;-72
2022/01/31 05:19:27;;;;;;;;;;;14.90;55.00;;;;;;5112439;27;19927;-71
2022/01/31 05:21:54;;;;;;;;;;;14.90;55.00;;;;;;5126952;27;20009;-71
2022/01/31 05:24:20;;;;;;;;;;;14.90;55.00;;;;;;5122604;27;19930;-70
2022/01/31 05:26:50;;;;;;;;;;;14.90;54.90;;;;;;5126719;27;20386;-72
2022/01/31 05:29:18;;;;;;;;;;;15.00;55.00;;;;;;5118105;27;20541;-70
2022/01/31 05:31:45;;;;;;;;;;;14.90;54.90;;;;;;5126670;27;19962;-70
2022/01/31 05:34:12;;;;;;;;;;;14.90;54.90;;;;;;5125869;27;19924;-70
2022/01/31 05:36:39;;;;;;;;;;;14.90;54.90;;;;;;5126107;27;19923;-70
2022/01/31 05:39:05;;;;;;;;;;;15.00;55.00;;;;;;5126054;27;19924;-73
2022/01/31 05:41:32;;;;;;;;;;;14.90;54.90;;;;;;5110835;27;20002;-71
2022/01/31 05:43:58;;;;;;;;;;;15.00;55.00;;;;;;5118380;27;19967;-70
2022/01/31 05:46:26;;;;;;;;;;;15.00;55.00;;;;;;5116470;27;20302;-70
2022/01/31 05:48:53;;;;;;;;;;;15.00;55.00;;;;;;5122873;27;19974;-70
2022/01/31 05:51:20;;;;;;;;;;;15.00;55.00;;;;;;5126993;27;19923;-73
2022/01/31 05:53:47;;;;;;;;;;;15.00;54.90;;;;;;5122752;27;20325;-70
2022/01/31 05:56:14;;;;;;;;;;;15.00;54.90;;;;;;5128309;27;20407;-73
2022/01/31 05:58:41;;;;;;;;;;;15.00;55.00;;;;;;5122588;27;20022;-70
2022/01/31 06:01:08;;;;;;;;;;;15.00;54.90;;;;;;5130113;27;20022;-70
2022/01/31 06:03:37;;;;;;;;;;;15.00;55.00;;;;;;5122534;27;20015;-70
2022/01/31 06:06:04;;;;;;;;;;;15.00;54.90;;;;;;5122387;27;19930;-70
2022/01/31 06:08:31;;;;;;;;;;;15.00;54.90;;;;;;5127086;27;20006;-71
2022/01/31 06:10:57;;;;;;;;;;;15.00;54.90;;;;;;5122284;27;19977;-71
2022/01/31 06:13:27;;;;;;;;;;;15.00;55.00;;;;;;5127700;27;19924;-71
2022/01/31 06:15:54;;;;;;;;;;;15.00;55.00;;;;;;5122234;27;19924;-71
2022/01/31 06:18:21;;;;;;;;;;;15.00;54.90;;;;;;5129535;27;19930;-71
2022/01/31 06:20:49;;;;;;;;;;;15.00;54.90;;;;;;5122038;27;20026;-71
2022/01/31 06:23:15;;;;;;;;;;;15.00;54.90;;;;;;5125068;27;20015;-71
2022/01/31 06:25:42;;;;;;;;;;;15.00;54.90;;;;;;5123821;27;20014;-71
2022/01/31 06:28:08;;;;;;;;;;;15.00;54.90;;;;;;5122724;27;19977;-70
2022/01/31 06:30:35;;;;;;;;;;;15.00;54.90;;;;;;5126950;27;20014;-72
2022/01/31 06:33:02;;;;;;;;;;;15.00;54.90;;;;;;5121994;27;20463;-69
2022/01/31 06:35:29;;;;;;;;;;;15.00;54.90;;;;;;5129999;27;20113;-70
2022/01/31 06:37:56;;;;;;;;;;;15.00;54.90;;;;;;5122058;27;20020;-69
2022/01/31 06:40:23;;;;;;;;;;;15.00;54.90;;;;;;5109614;27;20463;-70
2022/01/31 06:42:50;;;;;;;;;;;15.00;54.90;;;;;;5122305;27;19972;-72
2022/01/31 06:45:16;;;;;;;;;;;15.00;54.90;;;;;;5124545;27;19930;-73
2022/01/31 06:47:43;;;;;;;;;;;15.00;54.90;;;;;;5129445;27;19982;-73
2022/01/31 06:50:10;;;;;;;;;;;15.00;55.00;;;;;;5126023;27;20034;-73
2022/01/31 06:52:37;;;;;;;;;;;15.00;54.90;;;;;;5116674;27;19974;-73
2022/01/31 06:55:06;;;;;;;;;;;14.90;54.90;;;;;;5123006;27;19924;-70
2022/01/31 06:57:34;;;;;;;;;;;14.90;55.00;;;;;;5124781;27;19947;-70
2022/01/31 07:00:01;;;;;;;;;;;14.80;55.20;;;;;;5124529;27;19931;-70
2022/01/31 07:02:27;;;;;;;;;;;14.80;55.00;;;;;;5112899;27;19924;-70
2022/01/31 07:04:54;;;;;;;;;;;14.80;55.10;;;;;;5125211;27;19923;-70
2022/01/31 07:07:21;;;;;;;;;;;14.80;55.10;;;;;;5114145;27;19971;-70
2022/01/31 07:09:47;;;;;;;;;;;14.90;55.20;;;;;;5123521;27;19930;-70
2022/01/31 07:12:17;;;;;;;;;;;14.90;55.20;;;;;;5123099;27;20008;-73
2022/01/31 07:14:43;;;;;;;;;;;14.80;55.10;;;;;;5124545;27;19923;-70
2022/01/31 07:17:10;;;;;;;;;;;14.90;55.20;;;;;;5123201;27;20482;-71
2022/01/31 07:19:39;;;;;;;;;;;14.90;55.20;;;;;;5120969;27;19924;-72
2022/01/31 07:22:09;;;;;;;;;;;14.80;55.20;;;;;;5120739;27;19959;-71
2022/01/31 07:24:46;;;;;;;;;;;14.90;55.20;;;;;;5133071;27;20368;-70
2022/01/31 07:27:12;;;;;;;;;;;14.90;55.20;;;;;;5133056;27;19974;-71
2022/01/31 07:29:41;;;;;;;;;;;16.60;56.20;;;;;;5133180;27;20020;-70
2022/01/31 07:32:08;;;;;;;;;;;14.90;55.20;;;;;;5133130;27;19930;-70
2022/01/31 07:34:35;;;;;;;;;;;14.90;55.10;;;;;;5133419;27;19923;-71
2022/01/31 07:37:01;;;;;;;;;;;14.90;55.10;;;;;;5123020;27;19934;-71
2022/01/31 07:39:28;;;;;;;;;;;15.00;55.20;;;;;;5112747;28;20034;-70
2022/01/31 07:41:55;;;;;;;;;;;15.00;55.20;;;;;;5112540;28;19930;-73
2022/01/31 07:44:22;;;;;;;;;;;14.90;55.10;;;;;;5112761;28;20014;-72
2022/01/31 07:46:52;;;;;;;;;;;15.00;55.20;;;;;;5105180;28;19934;-72
2022/01/31 07:49:21;;;;;;;;;;;15.00;55.10;;;;;;5100309;28;19980;-72
2022/01/31 07:51:47;;;;;;;;;;;15.00;55.70;;;;;;5092156;28;20433;-71
2022/01/31 07:54:14;;;;;;;;;;;15.00;55.10;;;;;;5096811;28;20015;-71
2022/01/31 07:56:40;;;;;;;;;;;15.00;55.10;;;;;;5110499;28;20007;-72
2022/01/31 07:59:07;;;;;;;;;;;15.00;55.10;;;;;;5111848;28;19966;-71
2022/01/31 08:01:34;;;;;;;;;;;15.00;55.10;;;;;;5112341;28;20026;-71
2022/01/31 08:04:01;;;;;;;;;;;15.00;55.10;;;;;;5112284;28;20002;-72
2022/01/31 08:06:28;;;;;;;;;;;15.00;55.10;;;;;;5111785;28;20010;-71
2022/01/31 08:08:55;;;;;;;;;;;15.00;55.10;;;;;;5112083;28;20016;-72
2022/01/31 08:11:23;;;;;;;;;;;15.00;55.10;;;;;;5115927;28;20006;-73
2022/01/31 08:13:54;;;;;;;;;;;15.00;55.10;;;;;;5111534;28;19928;-73
2022/01/31 08:16:21;;;;;;;;;;;15.00;55.10;;;;;;5113361;28;20327;-75
2022/01/31 08:18:48;;;;;;;;;;;15.10;55.10;;;;;;5114508;28;19924;-74
2022/01/31 08:21:16;;;;;;;;;;;15.00;55.10;;;;;;5116826;28;19979;-74
2022/01/31 08:23:43;;;;;;;;;;;15.00;55.00;;;;;;5117333;28;20466;-74
2022/01/31 08:26:11;;;;;;;;;;;15.00;55.00;;;;;;5117164;28;19963;-75
2022/01/31 08:28:41;;;;;;;;;;;15.00;55.00;;;;;;5117487;28;19924;-74
2022/01/31 08:31:13;;;;;;;;;;;15.10;55.00;;;;;;5117221;28;20292;-75
2022/01/31 08:33:44;;;;;;;;;;;15.10;55.00;;;;;;5117292;28;19938;-75
2022/01/31 08:36:11;;;;;;;;;;;15.00;55.00;;;;;;5117541;28;19924;-75
2022/01/31 08:38:39;;;;;;;;;;;15.10;55.00;;;;;;5118038;28;20030;-75
2022/01/31 08:41:06;;;;;;;;;;;15.10;55.00;;;;;;5117124;28;19924;-75
2022/01/31 08:43:33;;;;;;;;;;;15.10;55.00;;;;;;5105239;28;19975;-74
2022/01/31 08:46:00;;;;;;;;;;;15.10;55.00;;;;;;5094843;28;20397;-74
2022/01/31 08:48:27;;;;;;;;;;;15.10;55.00;;;;;;5094153;28;20019;-72
2022/01/31 08:50:53;;;;;;;;;;;15.10;55.00;;;;;;5106441;28;20011;-73
2022/01/31 08:53:20;;;;;;;;;;;15.10;54.90;;;;;;5105485;28;20277;-73
2022/01/31 08:55:48;;;;;;;;;;;15.10;54.90;;;;;;5098219;28;19964;-73
2022/01/31 08:58:15;;;;;;;;;;;15.10;54.90;;;;;;5102055;28;19971;-73
2022/01/31 09:00:42;;;;;;;;;;;15.10;54.90;;;;;;5095525;28;20364;-70
2022/01/31 09:03:21;;;;;;;;;;;15.10;54.90;;;;;;5095344;28;20010;-70
2022/01/31 09:05:48;;;;;;;;;;;15.20;54.90;;;;;;5095053;28;20019;-70
2022/01/31 09:08:15;;;;;;;;;;;15.20;54.90;;;;;;5095332;28;20023;-70
2022/01/31 09:10:43;;;;;;;;;;;15.20;54.80;;;;;;5095168;28;20364;-71
2022/01/31 09:13:12;;;;;;;;;;;15.00;54.70;;;;;;5113283;28;20027;-70
2022/01/31 09:15:39;;;;;;;;;;;15.20;54.80;;;;;;5116091;28;20295;-70
2022/01/31 09:18:06;;;;;;;;;;;15.20;54.70;;;;;;5116716;28;19979;-74
2022/01/31 09:20:33;;;;;;;;;;;15.30;54.70;;;;;;5124435;28;20435;-73
2022/01/31 09:23:02;;;;;;;;;;;15.30;54.70;;;;;;5123839;28;20044;-72
2022/01/31 09:25:29;;;;;;;;;;;15.30;54.70;;;;;;5122591;28;19931;-74
2022/01/31 09:27:55;;;;;;;;;;;15.30;54.70;;;;;;5124424;28;19930;-72
2022/01/31 09:30:26;;;;;;;;;;;15.30;54.60;;;;;;5124087;28;20010;-74
2022/01/31 09:32:53;;;;;;;;;;;15.30;54.60;;;;;;5124317;28;19982;-74
2022/01/31 09:35:19;;;;;;;;;;;15.40;54.60;;;;;;5109674;28;19986;-74
2022/01/31 09:37:46;;;;;;;;;;;15.40;54.70;;;;;;5103033;28;19963;-74
2022/01/31 09:40:17;;;;;;;;;;;15.40;54.60;;;;;;5109409;28;20034;-73
2022/01/31 09:43:02;;;;;;;;;;;15.40;54.50;;;;;;5124617;28;19971;-74
2022/01/31 09:45:48;;;;;;;;;;;15.40;54.50;;;;;;5123211;28;19924;-74
2022/01/31 09:48:35;;;;;;;;;;;15.50;54.50;;;;;;5124290;28;19980;-74
2022/01/31 09:51:03;;;;;;;;;;;15.50;54.50;;;;;;5124083;28;19924;-73
2022/01/31 09:53:30;;;;;;;;;;;15.50;54.40;;;;;;5123679;28;19985;-74
2022/01/31 09:55:57;;;;;;;;;;;15.50;54.40;;;;;;5097361;28;20352;-71
2022/01/31 09:58:29;;;;;;;;;;;15.50;54.40;;;;;;5094186;28;19924;-70
2022/01/31 10:01:04;;;;;;;;;;;15.50;54.40;;;;;;5093622;28;19928;-70
2022/01/31 10:03:31;;;;;;;;;;;15.50;54.30;;;;;;5093872;28;20015;-70
2022/01/31 10:05:57;;;;;;;;;;;15.50;54.40;;;;;;5094019;28;20015;-70
2022/01/31 10:08:24;;;;;;;;;;;15.50;54.30;;;;;;5094743;28;19982;-70
2022/01/31 10:10:55;;;;;;;;;;;15.60;54.40;;;;;;5093708;28;19930;-70
2022/01/31 10:16:27;;;;;;;;;;;15.60;54.30;;;;;;5093732;28;19924;-70
2022/01/31 10:19:05;;;;;;;;;;;15.60;54.30;;;;;;5093755;28;20015;-72
2022/01/31 10:21:31;;;;;;;;;;;15.60;54.30;;;;;;5094125;28;19953;-70
2022/01/31 10:23:58;;;;;;;;;;;15.60;54.30;;;;;;5104961;28;19923;-70
2022/01/31 10:26:29;;;;;;;;;;;15.60;54.20;;;;;;5114009;28;20014;-70
2022/01/31 10:29:08;;;;;;;;;;;15.60;54.20;;;;;;5113723;28;20019;-71
2022/01/31 10:31:36;;;;;;;;;;;15.60;54.20;;;;;;5113765;28;20004;-71
2022/01/31 10:34:13;;;;;;;;;;;15.60;54.30;;;;;;5114931;28;19967;-69
2022/01/31 10:36:39;;;;;;;;;;;15.60;54.20;;;;;;5113342;28;19970;-73
2022/01/31 10:39:12;;;;;;;;;;;15.60;54.20;;;;;;5095356;28;19924;-70
2022/01/31 10:44:56;;;;;;;;;;;15.70;54.30;;;;;;5121353;27;20292;-70
2022/01/31 10:53:04;;;;;;;;;;;15.70;54.30;;;;;;5121920;27;20376;-70
2022/01/31 10:55:30;;;;;;;;;;;15.60;54.20;;;;;;5104467;28;19978;-71
2022/01/31 10:58:03;;;;;;;;;;;15.70;54.20;;;;;;5101645;28;19930;-70
2022/01/31 11:00:33;;;;;;;;;;;15.60;54.20;;;;;;5102265;28;20018;-72
2022/01/31 11:03:02;;;;;;;;;;;15.70;54.20;;;;;;5103119;28;20012;-72
2022/01/31 11:05:28;;;;;;;;;;;15.70;54.20;;;;;;5102532;28;20019;-72
2022/01/31 11:08:10;;;;;;;;;;;15.70;54.20;;;;;;5100838;28;20007;-72
2022/01/31 11:10:36;;;;;;;;;;;15.70;54.20;;;;;;5093592;28;20015;-72
2022/01/31 11:13:03;;;;;;;;;;;15.70;54.20;;;;;;5098163;28;19924;-72
2022/01/31 11:15:29;;;;;;;;;;;16.10;54.40;;;;;;5100115;28;20101;-71
2022/01/31 11:17:56;;;;;;;;;;;15.70;54.20;;;;;;5101364;28;20023;-71
2022/01/31 11:20:24;;;;;;;;;;;15.70;54.70;;;;;;5103896;28;19924;-72
2022/01/31 11:22:56;;;;;;;;;;;15.70;54.20;;;;;;5101904;28;20003;-72
2022/01/31 11:25:23;;;;;;;;;;;15.90;54.20;;;;;;5101358;28;19935;-72
2022/01/31 11:27:50;;;;;;;;;;;15.80;54.20;;;;;;5102270;28;19930;-71
2022/01/31 11:30:17;;;;;;;;;;;15.80;54.10;;;;;;5101517;28;20007;-72
2022/01/31 11:32:45;;;;;;;;;;;15.80;54.10;;;;;;5101058;28;20384;-72
2022/01/31 11:35:12;;;;;;;;;;;15.80;54.00;;;;;;5101601;28;19928;-72
2022/01/31 11:37:39;;;;;;;;;;;15.80;54.00;;;;;;5094662;28;20429;-69
2022/01/31 11:40:09;;;;;;;;;;;15.80;54.00;;;;;;5091596;28;20012;-71
2022/01/31 11:42:35;;;;;;;;;;;15.80;54.00;;;;;;5125956;27;19946;-71
2022/01/31 11:45:03;;;;;;;;;;;15.90;54.10;;;;;;5091220;28;20018;-69
2022/01/31 11:47:30;;;;;;;;;;;15.80;54.00;;;;;;5123874;27;19983;-72
2022/01/31 11:49:57;;;;;;;;;;;15.70;54.00;;;;;;5093031;28;20001;-72
2022/01/31 11:52:24;;;;;;;;;;;15.70;54.00;;;;;;5092537;28;19963;-73
2022/01/31 11:54:52;;;;;;;;;;;15.70;54.10;;;;;;5098569;28;20031;-75
2022/01/31 11:57:19;;;;;;;;;;;15.70;54.10;;;;;;5102592;28;20445;-74
2022/01/31 11:59:49;;;;;;;;;;;15.60;54.10;;;;;;5100993;28;20034;-72
2022/01/31 12:02:16;;;;;;;;;;;16.40;54.60;;;;;;5095823;28;19963;-73
2022/01/31 12:04:44;;;;;;;;;;;15.60;54.20;;;;;;5096179;28;19924;-74
2022/01/31 12:07:29;;;;;;;;;;;15.50;54.20;;;;;;5096348;28;19924;-73
2022/01/31 12:09:58;;;;;;;;;;;15.50;54.20;;;;;;5095682;28;19971;-73
2022/01/31 12:12:33;;;;;;;;;;;15.50;54.30;;;;;;5094655;28;20024;-73
2022/01/31 12:15:16;;;;;;;;;;;15.50;54.30;;;;;;5097001;28;19936;-73
2022/01/31 12:17:59;;;;;;;;;;;15.40;54.30;;;;;;5101234;28;19951;-73
2022/01/31 12:21:59;;;;;;;;;;;15.40;54.40;;;;;;5102112;28;19935;-73
2022/01/31 12:23:27;;;;;;;;;;;15.30;54.40;;;;;;5108977;28;19924;-74
2022/01/31 12:25:55;;;;;;;;;;;15.30;54.40;;;;;;5096222;28;19946;-74
2022/01/31 12:28:47;;;;;;;;;;;15.30;54.50;;;;;;5098794;28;20006;-74
2022/01/31 12:31:23;;;;;;;;;;;15.30;54.50;;;;;;5090784;28;19928;-73
2022/01/31 12:33:52;;;;;;;;;;;15.20;54.50;;;;;;5093866;28;20384;-74
2022/01/31 12:36:26;;;;;;;;;;;15.20;54.70;;;;;;5096137;28;20012;-72
2022/01/31 12:38:52;;;;;;;;;;;15.30;54.80;;;;;;5105277;28;20018;-73
2022/01/31 12:41:31;;;;;;;;;;;16.10;55.30;;;;;;5118308;28;19963;-73
2022/01/31 12:44:12;;;;;;;;;;;15.30;54.80;;;;;;5118090;28;19928;-74
2022/01/31 12:46:39;;;;;;;;;;;15.30;54.80;;;;;;5118813;28;19946;-73
2022/01/31 12:49:10;;;;;;;;;;;15.30;54.80;;;;;;5117002;28;20015;-74
2022/01/31 12:51:56;;;;;;;;;;;15.30;54.70;;;;;;5117510;28;20345;-73
2022/01/31 12:54:23;;;;;;;;;;;15.20;55.30;;;;;;5117449;28;20026;-73
2022/01/31 12:56:51;;;;;;;;;;;15.20;54.70;;;;;;5109347;28;20303;-72
2022/01/31 12:59:18;;;;;;;;;;;15.20;54.70;;;;;;5098075;28;20019;-72
2022/01/31 13:01:45;;;;;;;;;;;15.20;54.70;;;;;;5091163;28;20383;-72
2022/01/31 13:04:13;;;;;;;;;;;15.30;54.80;;;;;;5090867;28;20003;-72
2022/01/31 13:06:41;;;;;;;;;;;15.20;54.80;;;;;;5091016;28;19924;-72
2022/01/31 13:09:15;;;;;;;;;;;15.20;54.70;;;;;;5091098;28;19924;-72
2022/01/31 13:11:43;;;;;;;;;;;15.20;54.70;;;;;;5090923;28;19931;-72
2022/01/31 13:14:12;;;;;;;;;;;15.20;54.80;;;;;;5091037;28;20369;-72
2022/01/31 13:16:40;;;;;;;;;;;15.20;54.70;;;;;;5090952;28;19978;-72
2022/01/31 13:19:11;;;;;;;;;;;15.20;54.80;;;;;;5090674;28;19973;-73
2022/01/31 13:21:38;;;;;;;;;;;15.20;54.80;;;;;;5091072;28;20089;-72
2022/01/31 13:24:05;;;;;;;;;;;15.30;54.80;;;;;;5090724;28;19974;-72
2022/01/31 13:26:31;;;;;;;;;;;15.20;54.80;;;;;;5091682;28;19924;-72
2022/01/31 13:28:58;;;;;;;;;;;15.20;54.80;;;;;;5088926;28;19924;-72
2022/01/31 13:31:26;;;;;;;;;;;15.30;54.80;;;;;;5090715;28;20007;-72
2022/01/31 13:33:52;;;;;;;;;;;15.30;54.80;;;;;;5091712;28;19924;-72
2022/01/31 13:36:20;;;;;;;;;;;15.30;54.70;;;;;;5093455;28;20010;-72
2022/01/31 13:38:47;;;;;;;;;;;15.30;54.80;;;;;;5094593;28;19959;-72
2022/01/31 13:41:18;;;;;;;;;;;15.30;54.80;;;;;;5094631;28;20276;-72
2022/01/31 13:43:47;;;;;;;;;;;15.30;54.80;;;;;;5095352;28;19971;-72
2022/01/31 13:46:19;;;;;;;;;;;15.30;54.80;;;;;;5094136;28;19932;-72
2022/01/31 13:48:50;;;;;;;;;;;15.30;54.70;;;;;;5094473;28;19982;-72
2022/01/31 13:51:27;;;;;;;;;;;15.30;54.70;;;;;;5094539;28;20018;-70
2022/01/31 13:53:54;;;;;;;;;;;15.30;54.60;;;;;;5096401;28;19931;-74
2022/01/31 13:56:20;;;;;;;;;;;15.30;55.20;;;;;;5100136;28;19979;-73
2022/01/31 13:58:55;;;;;;;;;;;15.40;54.70;;;;;;5100059;28;19985;-74
2022/01/31 14:01:23;;;;;;;;;;;15.40;54.70;;;;;;5100741;28;19931;-73
2022/01/31 14:03:51;;;;;;;;;;;15.40;54.70;;;;;;5099176;28;19963;-74
2022/01/31 14:06:19;;;;;;;;;;;15.40;54.70;;;;;;5100400;28;19992;-74
2022/01/31 14:08:46;;;;;;;;;;;15.40;54.60;;;;;;5100537;28;19924;-74
2022/01/31 14:11:13;;;;;;;;;;;15.40;54.60;;;;;;5098280;28;20023;-74
2022/01/31 14:13:41;;;;;;;;;;;15.40;54.70;;;;;;5098881;28;19924;-73
2022/01/31 14:16:10;;;;;;;;;;;15.40;54.70;;;;;;5097815;28;19924;-73
2022/01/31 14:18:37;;;;;;;;;;;15.40;54.60;;;;;;5098647;28;19988;-74
2022/01/31 14:21:07;;;;;;;;;;;15.40;54.70;;;;;;5103574;28;20441;-73
2022/01/31 14:23:35;;;;;;;;;;;15.40;54.60;;;;;;5117884;28;19999;-73
2022/01/31 14:26:02;;;;;;;;;;;15.40;54.60;;;;;;5118048;28;19935;-73
2022/01/31 14:28:33;;;;;;;;;;;15.40;54.60;;;;;;5117850;28;20023;-73
2022/01/31 14:31:00;;;;;;;;;;;15.40;54.70;;;;;;5119820;28;20050;-72
2022/01/31 14:33:26;;;;;;;;;;;15.40;54.60;;;;;;5119053;28;20452;-74
2022/01/31 14:36:00;;;;;;;;;;;15.40;54.60;;;;;;5119561;28;19995;-74